Time;durP1;ratioP1;P1;durP2;ratioP2;P2;SDS_P1;SDS_P2;PMS_P1;PMS_P2;Temp;Humidity;BMP_temperature;BMP_pressure;BME280_temperature;BME280_humidity;BME280_pressure;Samples;Min_cycle;Max_cycle;Signal;HPM_P1;HPM_P2
2022/05/04 00:01:55;;;;;;;6.72;5.40;;;;;;;10.15;63.12;99115.91;1755417;81;21051;-75
2022/05/04 00:04:21;;;;;;;7.67;5.40;;;;;;;10.10;63.22;99109.98;1755281;81;21095;-74
2022/05/04 00:06:48;;;;;;;6.25;5.65;;;;;;;10.05;63.18;99115.41;1754948;81;21121;-75
2022/05/04 00:09:16;;;;;;;6.72;5.45;;;;;;;9.99;63.49;99120.45;1754864;81;21102;-74
2022/05/04 00:11:44;;;;;;;6.60;5.70;;;;;;;9.92;63.84;99128.19;1755329;81;20991;-74
2022/05/04 00:14:11;;;;;;;8.40;5.78;;;;;;;9.85;64.01;99124.05;1755096;81;21023;-74
2022/05/04 00:16:38;;;;;;;10.10;6.25;;;;;;;9.79;64.11;99120.37;1755253;81;21125;-74
2022/05/04 00:19:05;;;;;;;6.90;5.45;;;;;;;9.76;64.30;99125.73;1755161;81;20990;-74
2022/05/04 00:21:32;;;;;;;7.08;5.78;;;;;;;9.71;64.42;99124.59;1751798;81;21054;-74
2022/05/04 00:23:59;;;;;;;7.72;6.22;;;;;;;9.66;64.40;99124.75;1750156;82;21059;-74
2022/05/04 00:26:25;;;;;;;6.55;5.08;;;;;;;9.61;64.49;99121.91;1749926;82;20984;-74
2022/05/04 00:28:53;;;;;;;10.28;6.17;;;;;;;9.57;64.68;99125.11;1750350;82;21086;-75
2022/05/04 00:31:19;;;;;;;8.08;5.92;;;;;;;9.50;64.65;99126.25;1749781;82;21074;-74
2022/05/04 00:33:46;;;;;;;7.22;5.62;;;;;;;9.41;64.80;99130.04;1750308;82;21078;-74
2022/05/04 00:36:12;;;;;;;8.55;5.97;;;;;;;9.35;65.04;99134.22;1750234;82;21039;-74
2022/05/04 00:38:38;;;;;;;8.45;5.70;;;;;;;9.28;65.40;99140.61;1749882;82;21102;-74
2022/05/04 00:41:05;;;;;;;7.90;5.53;;;;;;;9.20;65.41;99137.39;1750116;82;21047;-74
2022/05/04 00:43:31;;;;;;;10.20;5.97;;;;;;;9.16;65.19;99141.86;1749745;82;21141;-79
2022/05/04 00:45:58;;;;;;;7.00;5.20;;;;;;;9.15;64.82;99143.26;1749899;82;21074;-80
2022/05/04 00:48:25;;;;;;;11.00;5.15;;;;;;;9.17;64.25;99137.03;1749878;82;22119;-79
2022/05/04 00:50:51;;;;;;;13.13;5.35;;;;;;;9.25;63.46;99140.25;1750110;82;20999;-79
2022/05/04 00:53:19;;;;;;;6.83;5.30;;;;;;;9.35;62.82;99139.94;1749864;82;21519;-79
2022/05/04 00:55:46;;;;;;;12.90;5.78;;;;;;;9.44;62.40;99138.28;1749973;82;21526;-79
2022/05/04 01:00:59;;;;;;;8.85;5.30;;;;;;;9.58;61.50;99146.96;1750554;81;21506;-79
2022/05/04 01:03:26;;;;;;;15.48;5.37;;;;;;;9.62;61.03;99148.58;1749947;82;21543;-79
2022/05/04 01:05:53;;;;;;;11.63;5.65;;;;;;;9.66;60.61;99140.51;1750225;82;21179;-81
2022/05/04 01:08:19;;;;;;;11.35;5.20;;;;;;;9.72;60.45;99143.85;1750125;82;21055;-80
2022/05/04 01:10:46;;;;;;;13.80;5.47;;;;;;;9.77;60.01;99149.79;1750268;82;21070;-79
2022/05/04 01:13:12;;;;;;;7.67;5.53;;;;;;;9.83;59.75;99142.97;1749892;82;21039;-79
2022/05/04 01:15:38;;;;;;;10.55;5.85;;;;;;;9.92;59.34;99155.78;1749842;82;21040;-79
2022/05/04 01:18:05;;;;;;;11.03;5.60;;;;;;;10.00;59.20;99153.72;1750206;82;21162;-80
2022/05/04 01:20:32;;;;;;;7.37;5.08;;;;;;;10.07;58.94;99148.21;1749175;81;21023;-80
2022/05/04 01:22:58;;;;;;;11.18;5.80;;;;;;;10.11;58.80;99155.92;1737951;82;21046;-79
2022/05/04 01:25:24;;;;;;;9.63;5.42;;;;;;;10.12;58.53;99152.83;1756918;81;21057;-79
2022/05/04 01:27:52;;;;;;;10.98;6.15;;;;;;;10.14;58.30;99165.02;1756870;81;21132;-79
2022/05/04 01:30:18;;;;;;;8.85;5.45;;;;;;;10.16;57.95;99161.86;1725471;83;21113;-80
2022/05/04 01:32:45;;;;;;;8.43;6.10;;;;;;;10.19;57.88;99154.33;1756839;81;21061;-79
2022/05/04 01:35:11;;;;;;;14.10;6.78;;;;;;;10.20;57.90;99156.02;1757145;81;21053;-80
2022/05/04 01:37:39;;;;;;;8.50;5.53;;;;;;;10.20;57.86;99156.02;1725554;83;21550;-78
2022/05/04 01:40:07;;;;;;;9.68;6.00;;;;;;;10.21;57.72;99164.32;1725511;83;21047;-80
2022/05/04 01:42:33;;;;;;;9.05;5.97;;;;;;;10.21;57.53;99163.00;1757037;81;21119;-79
2022/05/04 01:45:00;;;;;;;8.38;5.75;;;;;;;10.22;57.57;99159.44;1756799;81;20991;-80
2022/05/04 01:47:27;;;;;;;9.60;6.00;;;;;;;10.23;57.29;99169.05;1725541;83;21141;-79
2022/05/04 01:49:54;;;;;;;9.28;5.37;;;;;;;10.23;57.25;99165.95;1749481;81;21584;-79
2022/05/04 01:52:20;;;;;;;8.23;5.62;;;;;;;10.23;57.08;99164.64;1750392;82;22004;-79
2022/05/04 01:54:47;;;;;;;9.60;5.62;;;;;;;10.23;57.24;99167.73;1750573;82;22026;-79
2022/05/04 01:57:13;;;;;;;9.08;5.40;;;;;;;10.20;57.19;99166.54;1750434;82;21621;-79
2022/05/04 01:59:40;;;;;;;8.75;5.22;;;;;;;10.18;57.12;99173.64;1750550;82;20984;-76
2022/05/04 02:02:09;;;;;;;10.55;5.45;;;;;;;10.15;57.11;99176.38;1750755;82;21004;-74
2022/05/04 02:04:37;;;;;;;17.48;5.42;;;;;;;10.13;57.02;99174.27;1750251;82;21087;-74
2022/05/04 02:07:04;;;;;;;8.58;5.70;;;;;;;10.12;56.97;99176.48;1723307;81;21070;-74
2022/05/04 02:09:31;;;;;;;7.10;5.17;;;;;;;10.10;57.10;99184.90;1750336;82;21059;-74
2022/05/04 02:11:57;;;;;;;10.85;5.60;;;;;;;10.07;57.13;99181.06;1750436;82;21075;-73
2022/05/04 02:14:25;;;;;;;10.10;5.30;;;;;;;10.02;57.24;99178.64;1750540;81;21043;-73
2022/05/04 02:16:51;;;;;;;6.08;5.30;;;;;;;9.98;57.34;99183.13;1750775;82;21720;-74
2022/05/04 02:19:18;;;;;;;7.95;5.17;;;;;;;9.94;57.27;99189.42;1750816;81;21585;-74
2022/05/04 02:21:45;;;;;;;8.80;4.83;;;;;;;9.89;57.27;99193.99;1750600;81;21106;-74
2022/05/04 02:24:13;;;;;;;10.23;4.97;;;;;;;9.85;57.39;99200.26;1750618;82;21035;-74
2022/05/04 02:26:40;;;;;;;6.90;4.70;;;;;;;9.80;57.29;99197.83;1750516;82;21027;-73
2022/05/04 02:29:06;;;;;;;9.68;4.67;;;;;;;9.79;57.31;99192.63;1750679;82;21008;-73
2022/05/04 02:31:32;;;;;;;9.83;4.67;;;;;;;9.77;57.30;99194.45;1750202;82;21134;-73
2022/05/04 02:33:59;;;;;;;5.83;4.35;;;;;;;9.75;57.32;99195.83;1750380;82;21133;-74
2022/05/04 02:39:11;;;;;;;;;;;;;;;9.71;57.46;99205.17;1753068;82;21086;-73
2022/05/04 02:41:37;;;;;;;7.50;4.25;;;;;;;9.67;57.54;99213.16;1719002;83;20252;-73
2022/05/04 02:44:04;;;;;;;7.53;4.50;;;;;;;9.63;57.53;99215.95;1750780;82;21239;-74
2022/05/04 02:46:31;;;;;;;7.00;5.50;;;;;;;9.60;57.65;99209.48;1750206;82;21497;-73
2022/05/04 02:48:57;;;;;;;6.30;4.37;;;;;;;9.58;57.55;99218.76;1750811;82;21485;-74
2022/05/04 02:51:24;;;;;;;10.30;4.80;;;;;;;9.56;57.67;99215.30;1750581;82;21145;-74
2022/05/04 02:53:51;;;;;;;8.38;5.15;;;;;;;9.53;57.73;99215.44;1750530;82;21049;-73
2022/05/04 02:56:18;;;;;;;12.82;5.20;;;;;;;9.53;57.68;99219.81;1750147;81;21135;-74
2022/05/04 02:58:51;;;;;;;7.42;4.47;;;;;;;9.50;57.66;99222.11;1750327;81;20979;-74
2022/05/04 03:04:06;;;;;;;16.05;4.58;;;;;;;9.51;57.77;99230.83;1750475;82;21042;-74
2022/05/04 03:06:35;;;;;;;11.20;5.47;;;;;;;9.48;57.85;99227.84;1750517;82;21203;-74
2022/05/04 03:09:04;;;;;;;12.70;4.70;;;;;;;9.49;57.70;99234.83;1750481;82;22024;-73
2022/05/04 03:14:17;;;;;;;11.53;5.08;;;;;;;9.48;57.79;99246.23;1750893;82;28847;-76
2022/05/04 03:16:43;;;;;;;8.40;5.03;;;;;;;9.48;57.86;99243.16;1761340;80;21030;-74
2022/05/04 03:19:10;;;;;;;7.37;4.83;;;;;;;9.50;57.82;99237.86;1725317;83;21616;-73
2022/05/04 03:21:36;;;;;;;7.83;5.10;;;;;;;9.51;57.83;99253.16;1723609;83;21755;-73
2022/05/04 03:24:04;;;;;;;8.33;4.95;;;;;;;9.53;57.67;99261.83;1716625;83;21491;-73
2022/05/04 03:26:30;;;;;;;17.52;6.20;;;;;;;9.54;57.73;99259.16;1754378;81;21097;-76
2022/05/04 03:28:57;;;;;;;10.40;5.08;;;;;;;9.56;57.81;99259.95;1754948;81;21093;-75
2022/05/04 03:31:23;;;;;;;9.13;5.20;;;;;;;9.58;57.62;99268.66;1716458;83;21654;-73
2022/05/04 03:33:50;;;;;;;12.00;5.10;;;;;;;9.61;57.96;99271.16;1716339;83;22580;-73
2022/05/04 03:36:17;;;;;;;6.87;4.72;;;;;;;9.64;57.88;99269.74;1716138;83;21571;-75
2022/05/04 03:38:46;;;;;;;7.25;4.67;;;;;;;9.70;58.10;99265.19;1754698;81;21050;-74
2022/05/04 03:41:13;;;;;;;10.70;4.72;;;;;;;9.76;57.94;99263.67;1754938;81;21085;-74
2022/05/04 03:43:40;;;;;;;7.15;4.20;;;;;;;9.81;57.68;99269.15;1716364;83;21071;-74
2022/05/04 03:46:19;;;;;;;11.90;4.78;;;;;;;9.86;57.48;99271.63;1751604;81;21087;-75
2022/05/04 03:48:48;;;;;;;10.00;4.92;;;;;;;9.89;57.45;99282.03;1723187;83;21067;-74
2022/05/04 03:51:16;;;;;;;11.00;4.65;;;;;;;9.89;57.10;99284.66;1723481;83;21130;-74
2022/05/04 03:53:43;;;;;;;7.35;4.67;;;;;;;9.93;57.04;99290.66;1723478;83;20999;-74
2022/05/04 03:56:09;;;;;;;8.95;4.85;;;;;;;9.94;56.91;99293.70;1723411;83;21510;-74
2022/05/04 03:58:37;;;;;;;13.05;5.08;;;;;;;9.92;56.84;99296.38;1723510;83;22223;-74
2022/05/04 04:01:05;;;;;;;8.23;5.03;;;;;;;9.93;56.83;99299.86;1723259;83;21107;-74
2022/05/04 04:03:31;;;;;;;11.03;4.55;;;;;;;9.94;57.10;99291.92;1723540;83;21114;-73
2022/05/04 04:05:59;;;;;;;7.55;4.37;;;;;;;9.97;56.98;99297.07;1724875;83;21083;-74
2022/05/04 04:08:25;;;;;;;5.20;4.45;;;;;;;10.02;57.08;99300.39;1723160;83;21086;-74
2022/05/04 04:10:52;;;;;;;6.55;4.08;;;;;;;10.06;57.21;99296.34;1725031;83;21077;-74
2022/05/04 04:13:18;;;;;;;5.30;4.15;;;;;;;10.12;57.20;99296.10;1723299;83;20984;-74
2022/05/04 04:15:46;;;;;;;8.85;4.20;;;;;;;10.17;56.41;99297.67;1725031;83;21569;-74
2022/05/04 04:18:12;;;;;;;11.30;5.08;;;;;;;10.19;56.33;99296.30;1723352;82;21625;-74
2022/05/04 04:23:24;;;;;;;8.15;4.75;;;;;;;10.24;56.52;99306.19;1708932;83;23177;-74
2022/05/04 04:25:50;;;;;;;10.68;4.87;;;;;;;10.26;56.24;99306.98;1735741;82;21021;-74
2022/05/04 04:28:16;;;;;;;10.65;4.67;;;;;;;10.26;56.14;99308.30;1735766;82;21077;-74
2022/05/04 04:30:43;;;;;;;11.73;5.10;;;;;;;10.28;56.20;99319.61;1735850;82;21088;-75
2022/05/04 04:33:10;;;;;;;7.22;4.42;;;;;;;10.30;56.22;99316.47;1735866;81;20950;-74
2022/05/04 04:35:36;;;;;;;9.85;4.83;;;;;;;10.33;56.28;99317.70;1735740;82;21121;-74
2022/05/04 04:38:03;;;;;;;8.13;4.53;;;;;;;10.37;56.58;99320.64;1735642;82;21077;-74
2022/05/04 04:40:30;;;;;;;8.35;4.95;;;;;;;10.44;56.29;99325.66;1735706;82;21062;-74
2022/05/04 04:42:57;;;;;;;9.15;4.50;;;;;;;10.48;56.48;99321.55;1735771;82;20994;-74
2022/05/04 04:45:23;;;;;;;6.87;4.95;;;;;;;10.57;56.43;99319.90;1736105;82;21041;-74
2022/05/04 04:47:49;;;;;;;9.08;4.87;;;;;;;10.67;55.87;99324.80;1735657;82;21148;-74
2022/05/04 04:50:16;;;;;;;6.37;4.30;;;;;;;10.74;55.57;99322.32;1735789;82;21049;-74
2022/05/04 04:52:43;;;;;;;10.50;4.87;;;;;;;10.82;55.71;99320.72;1735548;82;21687;-74
2022/05/04 04:55:10;;;;;;;8.83;5.00;;;;;;;10.92;55.21;99326.02;1735727;82;21611;-74
2022/05/04 04:57:37;;;;;;;10.10;4.62;;;;;;;11.03;55.50;99328.22;1735754;82;21096;-74
2022/05/04 05:00:05;;;;;;;10.53;4.67;;;;;;;11.11;54.84;99332.30;1735427;82;21200;-73
2022/05/04 05:02:35;;;;;;;9.70;5.30;;;;;;;11.19;54.47;99332.44;1735683;82;21493;-74
2022/05/04 05:05:03;;;;;;;11.03;4.80;;;;;;;11.28;54.24;99330.73;1735637;82;21096;-74
2022/05/04 05:07:30;;;;;;;11.95;4.33;;;;;;;11.35;54.30;99334.86;1735586;82;21037;-74
2022/05/04 05:09:56;;;;;;;10.08;5.10;;;;;;;11.44;53.89;99332.30;1736143;81;20998;-75
2022/05/04 05:12:24;;;;;;;14.73;5.12;;;;;;;11.51;53.74;99333.28;1735848;82;21761;-74
2022/05/04 05:17:35;;;;;;;12.43;5.42;;;;;;;11.60;52.70;99336.45;1735764;82;21089;-74
2022/05/04 05:20:03;;;;;;;8.53;4.90;;;;;;;11.65;53.12;99342.39;1735756;82;21100;-74
2022/05/04 05:22:30;;;;;;;15.10;5.03;;;;;;;11.74;53.29;99343.34;1735702;81;21647;-74
2022/05/04 05:24:56;;;;;;;10.93;5.25;;;;;;;11.84;53.20;99349.94;1734598;82;21544;-75
2022/05/04 05:27:23;;;;;;;12.10;5.35;;;;;;;11.97;52.89;99349.43;1732348;82;21636;-73
2022/05/04 05:29:50;;;;;;;16.48;5.08;;;;;;;12.10;52.75;99346.66;1732338;82;21003;-74
2022/05/04 05:32:16;;;;;;;16.37;5.83;;;;;;;12.21;52.27;99346.20;1732805;82;21106;-74
2022/05/04 05:34:43;;;;;;;12.70;5.50;;;;;;;12.31;52.11;99349.30;1732396;82;20995;-74
2022/05/04 05:37:10;;;;;;;13.05;5.75;;;;;;;12.40;51.80;99343.13;1732172;82;21902;-75
2022/05/04 05:39:36;;;;;;;13.53;5.15;;;;;;;12.50;51.07;99347.53;1732139;82;21730;-74
2022/05/04 05:42:04;;;;;;;10.95;5.50;;;;;;;12.60;51.39;99351.46;1732155;82;21043;-74
2022/05/04 05:44:30;;;;;;;14.93;6.33;;;;;;;12.74;51.37;99355.25;1735323;82;21485;-74
2022/05/04 05:46:56;;;;;;;14.60;5.28;;;;;;;12.85;50.93;99352.14;1735619;82;21567;-74
2022/05/04 05:49:23;;;;;;;14.58;5.62;;;;;;;12.92;50.30;99348.27;1736039;82;21139;-74
2022/05/04 05:51:50;;;;;;;15.50;6.80;;;;;;;12.96;50.71;99357.75;1735362;82;21531;-74
2022/05/04 05:54:17;;;;;;;14.47;6.10;;;;;;;13.06;50.62;99364.30;1735560;82;21140;-74
2022/05/04 05:56:43;;;;;;;18.50;6.87;;;;;;;13.16;49.80;99359.45;1736004;82;21116;-74
2022/05/04 05:59:12;;;;;;;16.17;6.95;;;;;;;13.22;49.12;99367.09;1735887;82;21481;-75
2022/05/04 06:01:38;;;;;;;22.32;7.37;;;;;;;13.28;48.76;99363.28;1735469;82;21595;-75
2022/05/04 06:04:05;;;;;;;45.03;7.15;;;;;;;13.33;49.17;99362.19;1735371;82;21060;-75
2022/05/04 06:06:32;;;;;;;17.02;4.95;;;;;;;13.42;48.29;99366.16;1735296;81;21170;-75
2022/05/04 06:09:00;;;;;;;19.42;5.15;;;;;;;13.49;48.26;99367.56;1735677;82;21096;-74
2022/05/04 06:11:26;;;;;;;9.53;4.47;;;;;;;13.59;48.38;99367.98;1735694;82;21073;-74
2022/05/04 06:13:53;;;;;;;13.30;4.70;;;;;;;13.71;48.30;99371.32;1735886;82;21103;-75
2022/05/04 06:16:20;;;;;;;9.05;4.22;;;;;;;13.81;47.92;99370.88;1735568;82;21113;-74
2022/05/04 06:18:46;;;;;;;10.32;4.10;;;;;;;13.86;47.51;99371.02;1735705;82;21124;-75
2022/05/04 06:21:13;;;;;;;22.98;4.60;;;;;;;13.91;47.56;99366.83;1735343;82;21172;-75
2022/05/04 06:23:39;;;;;;;12.73;4.25;;;;;;;14.00;47.59;99371.64;1735733;81;21397;-75
2022/05/04 06:26:06;;;;;;;11.12;4.08;;;;;;;14.09;46.87;99369.86;1735401;82;21105;-74
2022/05/04 06:28:33;;;;;;;12.53;4.08;;;;;;;14.17;46.86;99369.92;1735353;82;21057;-75
2022/05/04 06:36:28;;;;;;;11.93;4.12;;;;;;;14.52;45.94;99371.19;1736083;82;21556;-74
2022/05/04 06:38:55;;;;;;;8.68;3.90;;;;;;;14.63;44.65;99366.22;1735842;82;21501;-75
2022/05/04 06:41:21;;;;;;;8.28;4.17;;;;;;;14.65;43.84;99372.28;1735982;82;20983;-75
2022/05/04 06:43:48;;;;;;;16.10;4.25;;;;;;;14.63;43.39;99368.87;1735468;82;21547;-75
2022/05/04 06:46:15;;;;;;;12.35;5.08;;;;;;;14.59;43.90;99376.57;1735525;82;21604;-74
2022/05/04 06:48:42;;;;;;;21.10;5.90;;;;;;;14.65;43.86;99380.23;1735608;82;21045;-74
2022/05/04 06:51:09;;;;;;;24.27;6.33;;;;;;;14.72;44.05;99380.27;1735706;82;21778;-74
2022/05/04 06:53:36;;;;;;;15.70;5.95;;;;;;;14.85;44.15;99380.00;1735526;82;21006;-75
2022/05/04 06:56:03;;;;;;;15.90;5.80;;;;;;;14.91;43.95;99386.77;1735756;82;21125;-74
2022/05/04 06:58:30;;;;;;;11.00;4.87;;;;;;;14.99;43.54;99388.98;1735880;82;21050;-74
2022/05/04 07:00:56;;;;;;;17.80;5.92;;;;;;;15.04;42.89;99385.61;1735393;82;21057;-75
2022/05/04 07:03:23;;;;;;;14.47;5.37;;;;;;;15.05;42.48;99379.39;1735692;82;21185;-76
2022/05/04 07:05:53;;;;;;;16.55;5.37;;;;;;;15.11;43.56;99386.13;1735680;82;21065;-75
2022/05/04 07:08:19;;;;;;;14.10;5.37;;;;;;;15.23;43.86;99387.64;1735644;82;20997;-75
2022/05/04 07:10:46;;;;;;;15.30;5.20;;;;;;;15.36;42.99;99389.59;1735870;82;21002;-74
2022/05/04 07:13:12;;;;;;;13.18;4.87;;;;;;;15.40;42.40;99385.84;1735977;82;20982;-74
2022/05/04 07:15:38;;;;;;;8.85;3.75;;;;;;;15.45;42.44;99397.04;1735979;82;21771;-74
2022/05/04 07:18:05;;;;;;;9.88;3.98;;;;;;;15.50;42.37;99402.06;1735850;82;21520;-74
2022/05/04 07:20:32;;;;;;;8.95;4.42;;;;;;;15.54;42.61;99403.12;1736005;81;21536;-75
2022/05/04 07:22:58;;;;;;;13.88;4.62;;;;;;;15.57;42.02;99405.61;1736496;81;21517;-74
2022/05/04 07:25:25;;;;;;;12.65;5.50;;;;;;;15.59;42.24;99405.05;1738671;82;21052;-75
2022/05/04 07:27:51;;;;;;;12.80;3.87;;;;;;;15.66;42.61;99410.86;1737791;82;21831;-74
2022/05/04 07:30:18;;;;;;;13.13;3.72;;;;;;;15.74;41.16;99405.97;1736937;82;21490;-75
2022/05/04 07:32:44;;;;;;;17.60;4.08;;;;;;;15.79;41.78;99403.09;1737103;82;21104;-74
2022/05/04 07:35:11;;;;;;;15.72;4.92;;;;;;;15.87;40.87;99407.48;1737122;82;21088;-75
2022/05/04 07:37:38;;;;;;;11.93;2.80;;;;;;;15.94;41.05;99412.80;1737586;82;21060;-73
2022/05/04 07:42:51;;;;;;;5.42;2.90;;;;;;;16.02;40.01;99410.16;1737108;82;21138;-74
2022/05/04 07:45:17;;;;;;;8.50;3.33;;;;;;;16.07;40.20;99417.38;1737655;82;21054;-74
2022/05/04 07:47:44;;;;;;;9.58;3.00;;;;;;;16.12;40.31;99406.89;1736505;82;21304;-75
2022/05/04 07:50:12;;;;;;;5.70;2.90;;;;;;;16.27;40.93;99411.77;1730445;82;21041;-74
2022/05/04 07:52:39;;;;;;;10.58;3.60;;;;;;;16.44;40.19;99413.86;1730671;82;21126;-75
2022/05/04 07:55:07;;;;;;;5.70;1.90;;;;;;;16.56;40.26;99413.13;1730548;82;21083;-75
2022/05/04 07:57:34;;;;;;;5.67;1.70;;;;;;;16.68;40.49;99417.68;1730527;82;20972;-75
2022/05/04 08:05:35;;;;;;;4.87;1.42;;;;;;;16.45;38.45;99429.70;1730243;82;21640;-75
2022/05/04 08:08:02;;;;;;;10.68;2.27;;;;;;;16.25;40.12;99426.91;1730554;82;21063;-74
2022/05/04 08:10:28;;;;;;;2.30;2.10;;;;;;;16.17;39.58;99427.83;1730406;82;21056;-75
2022/05/04 08:12:55;;;;;;;4.85;1.70;;;;;;;16.10;39.46;99429.15;1730727;82;21082;-75
2022/05/04 08:15:22;;;;;;;4.83;1.98;;;;;;;16.12;40.04;99421.49;1730433;82;23197;-75
2022/05/04 08:17:48;;;;;;;7.85;1.40;;;;;;;16.23;39.86;99423.50;1730264;82;21081;-75
2022/05/04 08:20:14;;;;;;;8.43;1.50;;;;;;;16.22;39.43;99427.09;1730703;82;21063;-74
2022/05/04 08:22:41;;;;;;;3.17;1.50;;;;;;;16.11;38.79;99431.72;1730547;82;21011;-75
2022/05/04 08:25:07;;;;;;;4.50;1.65;;;;;;;15.96;38.91;99439.25;1728071;82;21074;-74
2022/05/04 08:27:34;;;;;;;2.92;2.15;;;;;;;15.77;38.83;99436.81;1728094;82;21063;-74
2022/05/04 08:30:00;;;;;;;5.45;2.05;;;;;;;15.66;39.20;99447.14;1728428;83;21090;-75
2022/05/04 08:32:30;;;;;;;8.00;2.67;;;;;;;15.57;39.65;99447.20;1727902;83;21015;-75
2022/05/04 08:34:57;;;;;;;5.30;2.75;;;;;;;15.52;39.79;99454.08;1728034;83;21067;-74
2022/05/04 08:37:27;;;;;;;9.38;2.60;;;;;;;15.42;39.91;99447.58;1728044;83;21122;-74
2022/05/04 08:39:55;;;;;;;11.65;2.95;;;;;;;15.39;40.20;99453.89;1728361;83;21573;-75
2022/05/04 08:42:21;;;;;;;5.35;2.30;;;;;;;15.40;40.44;99457.42;1728061;83;21209;-74
2022/05/04 08:44:52;;;;;;;8.70;2.75;;;;;;;15.45;40.66;99457.14;1728026;83;21058;-74
2022/05/04 08:47:20;;;;;;;6.62;2.08;;;;;;;15.47;40.09;99458.78;1728363;82;21047;-75
2022/05/04 08:49:47;;;;;;;8.83;1.98;;;;;;;15.53;39.54;99458.45;1728348;83;20995;-75
2022/05/04 08:52:15;;;;;;;3.50;1.80;;;;;;;15.54;39.23;99460.14;1727982;82;21075;-75
2022/05/04 08:54:44;;;;;;;6.37;1.35;;;;;;;15.55;39.83;99463.19;1728406;83;21127;-75
2022/05/04 08:57:11;;;;;;;4.83;1.50;;;;;;;15.60;39.44;99465.11;1728114;83;21075;-74
2022/05/04 08:59:39;;;;;;;2.80;1.55;;;;;;;15.66;39.04;99462.58;1728218;83;21004;-74
2022/05/04 09:02:06;;;;;;;8.93;1.57;;;;;;;15.73;39.16;99465.25;1728268;83;21051;-74
2022/05/04 09:04:34;;;;;;;3.42;1.50;;;;;;;15.89;39.36;99467.94;1727958;83;21047;-75
2022/05/04 09:07:01;;;;;;;5.20;1.27;;;;;;;16.08;39.47;99473.51;1728283;83;21007;-74
2022/05/04 09:09:31;;;;;;;1.92;1.30;;;;;;;16.31;39.89;99465.05;1728278;82;21105;-74
2022/05/04 09:12:01;;;;;;;2.80;1.60;;;;;;;16.58;38.63;99464.35;1715854;83;21078;-73
2022/05/04 09:14:28;;;;;;;7.00;1.92;;;;;;;16.78;37.69;99470.23;1727756;83;21075;-75
2022/05/04 09:16:54;;;;;;;6.12;1.70;;;;;;;16.94;36.52;99471.05;1728049;83;21032;-75
2022/05/04 09:19:21;;;;;;;1.72;1.25;;;;;;;17.07;36.18;99458.70;1728154;83;21083;-75
2022/05/04 09:21:47;;;;;;;3.15;1.20;;;;;;;17.08;35.46;99457.77;1741424;81;21082;-75
2022/05/04 09:24:15;;;;;;;6.10;1.15;;;;;;;17.14;36.24;99460.99;1732805;82;21010;-74
2022/05/04 09:26:43;;;;;;;4.60;1.17;;;;;;;17.26;33.41;99451.78;1724572;83;22164;-75
2022/05/04 09:29:13;;;;;;;3.17;1.30;;;;;;;17.40;33.42;99453.55;1722569;83;21070;-74
2022/05/04 09:31:46;;;;;;;4.10;1.05;;;;;;;17.59;33.85;99461.67;1724851;83;21152;-74
2022/05/04 09:34:13;;;;;;;7.45;1.17;;;;;;;17.81;33.45;99458.47;1697392;83;21091;-75
2022/05/04 09:45:13;;;;;;;5.92;1.70;;;;;;;18.49;32.76;99452.19;1722589;83;21580;-75
2022/05/04 09:47:41;;;;;;;4.85;2.08;;;;;;;18.43;33.15;99453.92;1721083;83;21038;-74
2022/05/04 09:50:09;;;;;;;2.85;1.90;;;;;;;18.35;33.43;99462.42;1733949;82;21484;-74
2022/05/04 09:52:50;;;;;;;3.67;1.60;;;;;;;18.16;33.08;99457.49;1733992;82;21059;-74
2022/05/04 09:55:24;;;;;;;3.80;1.60;;;;;;;18.05;33.53;99457.34;1733613;82;21055;-75
2022/05/04 09:57:54;;;;;;;4.22;1.60;;;;;;;18.10;33.68;99457.89;1757636;81;21096;-75
2022/05/04 10:00:24;;;;;;;3.20;1.60;;;;;;;18.16;33.18;99460.16;1730688;82;21510;-75
2022/05/04 10:02:57;;;;;;;3.40;1.90;;;;;;;18.20;33.30;99465.64;1730712;82;20992;-75
2022/05/04 10:05:23;;;;;;;11.12;1.80;;;;;;;18.19;32.86;99461.77;1730849;82;21580;-74
2022/05/04 10:07:52;;;;;;;1.90;1.42;;;;;;;18.01;32.29;99461.19;1731048;82;22228;-75
2022/05/04 10:10:21;;;;;;;2.75;1.25;;;;;;;17.82;33.30;99465.03;1739184;81;21105;-74
2022/05/04 10:12:49;;;;;;;2.65;1.25;;;;;;;17.81;33.96;99468.63;1738873;81;21687;-75
2022/05/04 10:15:18;;;;;;;3.52;1.00;;;;;;;17.95;33.15;99465.57;1739314;82;21522;-74
2022/05/04 10:18:04;;;;;;;3.17;0.95;;;;;;;18.07;33.39;99466.11;1739127;81;21078;-75
2022/05/04 10:20:34;;;;;;;3.02;1.50;;;;;;;18.13;32.57;99463.02;1739122;81;21062;-74
2022/05/04 10:23:25;;;;;;;4.50;1.00;;;;;;;18.07;32.45;99463.91;1738848;81;21114;-75
2022/05/04 10:25:52;;;;;;;1.12;0.98;;;;;;;17.91;32.45;99465.41;1735627;82;20991;-74
2022/05/04 10:28:18;;;;;;;4.62;1.10;;;;;;;17.73;32.64;99464.28;1735747;82;21059;-74
2022/05/04 10:30:55;;;;;;;3.40;1.80;;;;;;;17.55;32.97;99474.33;1735850;82;21027;-73
2022/05/04 10:33:32;;;;;;;1.80;0.90;;;;;;;17.46;33.30;99473.09;1735327;81;21054;-73
2022/05/04 10:36:17;;;;;;;1.77;0.70;;;;;;;17.41;32.18;99469.86;1735798;82;21471;-74
2022/05/04 10:38:45;;;;;;;;;;;;;;;17.35;32.36;99472.06;1738156;82;22159;-74
2022/05/04 10:41:15;;;;;;;2.10;0.98;;;;;;;17.41;32.62;99473.02;1735892;82;20156;-74
2022/05/04 10:43:45;;;;;;;3.62;1.15;;;;;;;17.52;31.14;99464.37;1735415;82;21074;-75
2022/05/04 10:46:23;;;;;;;4.58;1.77;;;;;;;17.62;31.88;99470.80;1735822;82;21082;-75
2022/05/04 10:49:02;;;;;;;3.50;1.22;;;;;;;17.66;30.99;99464.31;1735629;82;21196;-74
2022/05/04 10:51:36;;;;;;;2.15;1.00;;;;;;;17.50;31.07;99468.91;1735909;82;20991;-74
2022/05/04 10:54:11;;;;;;;5.90;0.80;;;;;;;17.44;31.53;99464.84;1736023;82;22328;-74
2022/05/04 10:56:47;;;;;;;3.70;0.80;;;;;;;17.53;31.29;99460.73;1735821;82;21592;-75
2022/05/04 10:59:25;;;;;;;7.37;1.05;;;;;;;17.51;29.73;99465.30;1735870;82;21122;-75
2022/05/04 11:02:04;;;;;;;3.92;1.10;;;;;;;17.43;29.85;99465.78;1736226;82;21740;-74
2022/05/04 11:04:28;;;;;;;5.72;0.98;;;;;;;17.52;30.32;99463.03;1716310;82;21122;-75
2022/05/04 11:07:06;;;;;;;1.57;0.88;;;;;;;17.69;30.70;99456.13;1735826;82;21050;-75
2022/05/04 11:09:39;;;;;;;5.65;1.00;;;;;;;17.87;29.98;99463.89;1735738;82;21031;-75
2022/05/04 11:12:10;;;;;;;2.08;0.85;;;;;;;18.02;29.52;99460.21;1735713;82;21063;-75
2022/05/04 11:14:36;;;;;;;5.65;1.07;;;;;;;17.96;29.17;99463.30;1736116;82;21506;-75
2022/05/04 11:17:14;;;;;;;2.50;0.90;;;;;;;17.91;29.30;99464.08;1735690;82;21078;-74
2022/05/04 11:19:44;;;;;;;7.50;1.10;;;;;;;17.99;29.77;99459.95;1735682;82;21585;-74
2022/05/04 11:22:11;;;;;;;5.53;0.93;;;;;;;18.09;29.38;99458.87;1736156;82;21035;-74
2022/05/04 11:24:37;;;;;;;2.62;1.30;;;;;;;18.03;28.86;99456.61;1735864;82;21109;-75
2022/05/04 11:27:04;;;;;;;2.67;0.93;;;;;;;17.99;29.30;99452.45;1735126;82;21045;-74
2022/05/04 11:29:33;;;;;;;1.17;1.07;;;;;;;17.99;30.15;99453.78;1756920;81;20966;-75
2022/05/04 11:32:03;;;;;;;3.02;1.10;;;;;;;17.94;29.64;99448.75;1757192;81;21050;-74
2022/05/04 11:34:38;;;;;;;3.70;1.22;;;;;;;17.88;30.07;99455.81;1756941;81;21077;-75
2022/05/04 11:37:07;;;;;;;8.75;1.45;;;;;;;17.97;30.52;99449.02;1725434;83;21672;-74
2022/05/04 11:39:34;;;;;;;5.00;1.10;;;;;;;18.13;30.15;99445.71;1757273;81;21081;-75
2022/05/04 11:42:02;;;;;;;9.53;1.40;;;;;;;18.19;29.71;99454.63;1756836;81;21078;-74
2022/05/04 11:44:29;;;;;;;5.55;1.30;;;;;;;18.15;29.38;99453.59;1726158;83;21507;-75
2022/05/04 11:46:58;;;;;;;2.75;1.37;;;;;;;18.17;29.73;99451.22;1753778;81;21483;-75
2022/05/04 11:49:29;;;;;;;7.15;1.50;;;;;;;18.22;29.51;99451.38;1750307;81;21015;-75
2022/05/04 11:51:58;;;;;;;5.42;1.15;;;;;;;18.28;29.89;99457.63;1750639;81;21100;-75
2022/05/04 11:54:26;;;;;;;1.87;1.15;;;;;;;18.30;29.47;99455.71;1750685;82;20996;-75
2022/05/04 11:56:53;;;;;;;7.20;0.95;;;;;;;18.31;28.31;99457.43;1750333;82;21032;-74
2022/05/04 11:59:19;;;;;;;2.85;0.90;;;;;;;18.34;28.05;99450.08;1750385;81;21013;-75
2022/05/04 12:01:46;;;;;;;3.47;1.65;;;;;;;18.47;28.44;99454.08;1750732;81;21174;-74
2022/05/04 12:04:13;;;;;;;2.70;1.45;;;;;;;18.58;28.47;99460.02;1750538;82;21502;-74
2022/05/04 12:06:42;;;;;;;4.25;1.70;;;;;;;18.60;27.45;99450.09;1750059;82;21075;-74
2022/05/04 12:09:08;;;;;;;5.17;2.12;;;;;;;18.41;28.19;99453.19;1750619;81;20995;-74
2022/05/04 12:11:35;;;;;;;4.75;1.40;;;;;;;18.36;28.70;99452.64;1750725;82;21035;-74
2022/05/04 12:14:03;;;;;;;6.80;1.62;;;;;;;18.47;29.05;99439.42;1750910;81;21507;-75
2022/05/04 12:16:29;;;;;;;3.77;1.60;;;;;;;18.51;28.66;99448.93;1750410;82;21608;-75